| Date | Time | Temp. (oF) | Dew Point (oF) | Rel. Hum. (%) | Press. (in.) | Wind Dir. | Wind Speed (mph) | Hourly Rainfall (in.) |
|
|---|---|---|---|---|---|---|---|---|---|
| 1 | 09/05 | 00:00 | 76 | 73 | 92 | 30.20 | S | 1 | 0.00 |
| 2 | 09/04 | 23:00 | 77 | 73 | 90 | 30.20 | S | 0 | 0.00 |
| 3 | 09/04 | 22:00 | 79 | 74 | 86 | 30.20 | S | 1 | 0.00 |
| 4 | 09/04 | 21:00 | 80 | 73 | 80 | 30.19 | SE | 1 | 0.00 |
| 5 | 09/04 | 20:00 | 85 | 72 | 66 | 30.17 | WSW | 1 | 0.00 |
| 6 | 09/04 | 19:00 | 88 | 70 | 57 | 30.15 | WSW | 2 | 0.00 |
| 7 | 09/04 | 18:00 | 91 | 71 | 53 | 30.16 | WSW | 2 | 0.00 |
| 8 | 09/04 | 17:00 | 93 | 72 | 51 | 30.16 | NW | 4 | 0.00 |
| 9 | 09/04 | 16:00 | 93 | 70 | 49 | 30.17 | WSW | 4 | 0.00 |
| 10 | 09/04 | 15:00 | 92 | 72 | 54 | 30.20 | SW | 5 | 0.00 |
| 11 | 09/04 | 14:00 | 90 | 72 | 56 | 30.23 | SSW | 1 | 0.00 |
| 12 | 09/04 | 13:00 | 90 | 73 | 58 | 30.24 | SSE | 2 | 0.00 |
| 13 | 09/04 | 12:00 | 89 | 71 | 57 | 30.26 | NNW | 3 | 0.00 |
| 14 | 09/04 | 11:00 | 86 | 72 | 65 | 30.27 | WSW | 3 | 0.00 |
| 15 | 09/04 | 10:00 | 84 | 76 | 78 | 30.26 | NW | 2 | 0.00 |
| 16 | 09/04 | 09:00 | 79 | 76 | 92 | 30.26 | W | 1 | 0.00 |
| 17 | 09/04 | 08:00 | 75 | 74 | 98 | 30.25 | NW | 1 | 0.00 |
| 18 | 09/04 | 07:00 | 73 | 72 | 97 | 30.23 | NNW | 1 | 0.00 |
| 19 | 09/04 | 06:00 | 74 | 73 | 97 | 30.22 | NNW | 1 | 0.00 |
| 20 | 09/04 | 05:00 | 75 | 73 | 96 | 30.21 | NNW | 0 | 0.00 |
| 21 | 09/04 | 04:00 | 76 | 74 | 96 | 30.21 | NNW | 1 | 0.00 |
| 22 | 09/04 | 03:00 | 76 | 74 | 95 | 30.21 | NNW | 0 | 0.00 |
| 23 | 09/04 | 02:00 | 77 | 75 | 95 | 30.22 | SSW | 1 | 0.00 |
| 24 | 09/04 | 01:00 | 78 | 76 | 94 | 30.23 | SSW | 0 | 0.00 |